createdAt,value
2022-12-26T00:00:28.059Z,3.62
2022-12-26T00:03:20.833Z,3.78
2022-12-26T00:05:53.829Z,3.90
2022-12-26T00:08:26.766Z,3.97
2022-12-26T00:11:00.455Z,4.03
2022-12-26T00:13:39.465Z,4.06
2022-12-26T00:16:15.369Z,4.11
2022-12-26T00:18:48.737Z,4.19
2022-12-26T00:21:22.680Z,4.25
2022-12-26T00:23:55.471Z,4.32
2022-12-26T00:26:30.575Z,4.41
2022-12-26T00:29:03.251Z,4.46
2022-12-26T00:31:37.221Z,4.51
2022-12-26T00:34:10.937Z,4.53
2022-12-26T00:36:43.485Z,4.53
2022-12-26T00:39:17.690Z,4.54
2022-12-26T00:41:50.269Z,4.55
2022-12-26T00:44:23.028Z,4.59
2022-12-26T00:46:55.569Z,4.65
2022-12-26T00:49:28.371Z,4.71
2022-12-26T00:52:21.534Z,4.79
2022-12-26T00:54:55.941Z,4.85
2022-12-26T00:57:28.523Z,4.88
2022-12-26T01:00:02.556Z,4.89
2022-12-26T01:02:41.336Z,4.89
2022-12-26T01:05:14.719Z,4.88
2022-12-26T01:08:19.446Z,4.89
2022-12-26T01:10:41.749Z,4.91
2022-12-26T01:13:15.831Z,4.96
2022-12-26T01:15:52.880Z,5.00
2022-12-26T01:18:25.514Z,5.03
2022-12-26T01:21:01.968Z,5.07
2022-12-26T01:23:34.687Z,5.10
2022-12-26T01:26:18.818Z,5.12
2022-12-26T01:28:54.299Z,5.11
2022-12-26T01:31:27.132Z,5.08
2022-12-26T01:33:59.941Z,5.06
2022-12-26T01:36:33.906Z,5.07
2022-12-26T01:39:06.607Z,5.08
2022-12-26T01:41:39.420Z,5.11
2022-12-26T01:44:42.114Z,5.13
2022-12-26T01:47:15.690Z,5.17
2022-12-26T01:49:50.852Z,5.22
2022-12-26T01:52:33.899Z,5.24
2022-12-26T01:55:09.285Z,5.27
2022-12-26T01:57:46.319Z,5.28
2022-12-26T02:00:19.822Z,5.30
2022-12-26T02:03:06.450Z,5.31
2022-12-26T02:05:40.040Z,5.32
2022-12-26T02:08:16.276Z,5.35
2022-12-26T02:10:52.041Z,5.36
2022-12-26T02:13:28.754Z,5.35
2022-12-26T02:16:01.343Z,5.33
2022-12-26T02:18:33.908Z,5.31
2022-12-26T02:21:26.070Z,5.33
2022-12-26T02:24:32.024Z,5.37
2022-12-26T02:27:26.323Z,5.41
2022-12-26T02:30:09.222Z,5.46
2022-12-26T02:33:03.041Z,5.51
2022-12-26T02:35:50.860Z,5.53
2022-12-26T02:38:36.211Z,5.51
2022-12-26T02:41:19.930Z,5.49
2022-12-26T02:44:24.512Z,5.47
2022-12-26T02:47:09.495Z,5.46
2022-12-26T02:50:20.898Z,5.48
2022-12-26T02:53:30.650Z,5.55
2022-12-26T02:56:25.229Z,5.63
2022-12-26T02:59:55.671Z,5.69
2022-12-26T03:02:42.994Z,5.73
2022-12-26T03:05:39.517Z,5.73
2022-12-26T03:08:35.992Z,5.71
2022-12-26T03:11:26.297Z,5.66
2022-12-26T03:14:12.442Z,5.65
2022-12-26T03:17:05.776Z,5.66
2022-12-26T03:19:58.576Z,5.72
2022-12-26T03:22:38.264Z,5.77
2022-12-26T03:25:31.864Z,5.82
2022-12-26T03:28:04.919Z,5.87
2022-12-26T03:30:52.627Z,5.91
2022-12-26T03:33:47.619Z,5.94
2022-12-26T03:36:31.079Z,5.93
2022-12-26T03:39:20.746Z,5.91
2022-12-26T03:42:20.297Z,5.89
2022-12-26T03:45:16.658Z,5.90
2022-12-26T03:48:16.242Z,5.93
2022-12-26T03:51:13.412Z,5.97
2022-12-26T03:54:08.600Z,6.02
2022-12-26T03:57:04.756Z,6.07
2022-12-26T04:00:02.763Z,6.10
2022-12-26T04:03:05.156Z,6.11
2022-12-26T04:05:58.156Z,6.08
2022-12-26T04:08:58.510Z,6.02
2022-12-26T04:11:51.176Z,5.96
2022-12-26T04:14:59.466Z,5.89
2022-12-26T04:17:53.704Z,5.83
2022-12-26T04:20:31.506Z,5.79
2022-12-26T04:23:28.648Z,5.76
2022-12-26T04:26:25.164Z,5.74
2022-12-26T04:29:15.661Z,5.74
2022-12-26T04:32:13.420Z,5.75
2022-12-26T04:35:12.969Z,5.78
2022-12-26T04:38:06.405Z,5.81
2022-12-26T04:41:01.185Z,5.83
2022-12-26T04:43:52.614Z,5.85
2022-12-26T04:46:26.978Z,5.88
2022-12-26T04:49:32.208Z,5.94
2022-12-26T04:52:06.755Z,6.01
2022-12-26T04:54:39.520Z,6.06
2022-12-26T04:57:14.073Z,6.11
2022-12-26T04:59:47.514Z,6.16
2022-12-26T05:02:37.799Z,6.19
2022-12-26T05:05:29.545Z,6.23
2022-12-26T05:08:21.329Z,6.19
2022-12-26T05:10:53.963Z,6.13
2022-12-26T05:13:28.028Z,6.05
2022-12-26T05:16:18.305Z,6.00
2022-12-26T05:19:08.569Z,5.97
2022-12-26T05:21:59.156Z,5.96
2022-12-26T05:24:53.720Z,5.96
2022-12-26T05:27:50.042Z,5.96
2022-12-26T05:30:23.100Z,5.98
2022-12-26T05:33:13.202Z,5.99
2022-12-26T05:35:45.866Z,5.98
2022-12-26T05:38:18.506Z,5.98
2022-12-26T05:40:51.015Z,5.99
2022-12-26T05:43:24.268Z,6.01
2022-12-26T05:45:57.779Z,6.02
2022-12-26T05:48:30.801Z,6.04
2022-12-26T05:51:05.290Z,6.07
2022-12-26T05:53:37.976Z,6.06
2022-12-26T05:56:15.033Z,6.05
2022-12-26T05:58:47.941Z,6.01
2022-12-26T06:01:22.529Z,5.98
2022-12-26T06:03:56.980Z,5.97
2022-12-26T06:06:31.082Z,5.96
2022-12-26T06:09:04.602Z,5.97
2022-12-26T06:11:37.117Z,5.99
2022-12-26T06:14:09.609Z,6.00
2022-12-26T06:16:42.589Z,6.03
2022-12-26T06:19:15.255Z,6.05
2022-12-26T06:21:49.123Z,6.08
2022-12-26T06:24:21.861Z,6.10
2022-12-26T06:26:54.788Z,6.13
2022-12-26T06:29:27.834Z,6.15
2022-12-26T06:32:01.755Z,6.18
2022-12-26T06:34:35.235Z,6.21
2022-12-26T06:37:07.974Z,6.24
2022-12-26T06:39:40.501Z,6.28
2022-12-26T06:42:13.144Z,6.30
2022-12-26T06:44:46.445Z,6.30
2022-12-26T06:47:19.107Z,6.29
2022-12-26T06:49:51.818Z,6.27
2022-12-26T06:52:24.466Z,6.28
2022-12-26T06:54:59.216Z,6.30
2022-12-26T06:57:32.878Z,6.34
2022-12-26T07:00:07.333Z,6.39
2022-12-26T07:02:40.147Z,6.45
2022-12-26T07:05:13.103Z,6.50
2022-12-26T07:07:45.732Z,6.57
2022-12-26T07:10:19.622Z,6.61
2022-12-26T07:12:52.800Z,6.64
2022-12-26T07:15:25.515Z,6.65
2022-12-26T07:17:58.700Z,6.67
2022-12-26T07:20:32.030Z,6.68
2022-12-26T07:23:07.057Z,6.70
2022-12-26T07:25:41.389Z,6.74
2022-12-26T07:28:14.146Z,6.78
2022-12-26T07:30:51.081Z,6.84
2022-12-26T07:33:23.962Z,6.90
2022-12-26T07:36:00.836Z,6.97
2022-12-26T07:38:34.025Z,7.04
2022-12-26T07:41:20.688Z,7.12
2022-12-26T07:43:53.605Z,7.19
2022-12-26T07:46:27.396Z,7.26
2022-12-26T07:49:00.349Z,7.30
2022-12-26T07:51:33.029Z,7.32
2022-12-26T07:54:11.061Z,7.35
2022-12-26T07:56:45.215Z,7.36
2022-12-26T07:59:19.065Z,7.38
2022-12-26T08:01:51.799Z,7.40
2022-12-26T08:04:24.598Z,7.41
2022-12-26T08:06:57.244Z,7.44
2022-12-26T08:09:32.043Z,7.52
2022-12-26T08:12:04.886Z,7.63
2022-12-26T08:14:37.748Z,7.79
2022-12-26T08:17:13.647Z,7.93
2022-12-26T08:19:46.205Z,8.09
2022-12-26T08:22:19.652Z,8.23
2022-12-26T08:24:52.281Z,8.42
2022-12-26T08:27:24.967Z,8.63
2022-12-26T08:29:57.584Z,8.73
2022-12-26T08:32:30.483Z,8.76
2022-12-26T08:35:03.419Z,8.77
2022-12-26T08:37:36.110Z,8.80
2022-12-26T08:40:11.179Z,8.83
2022-12-26T08:43:11.802Z,8.88
2022-12-26T08:45:38.160Z,8.93
2022-12-26T08:48:11.707Z,8.98
2022-12-26T08:50:44.311Z,9.09
2022-12-26T08:53:17.011Z,9.21
2022-12-26T08:55:51.266Z,9.33
2022-12-26T08:58:24.153Z,9.34
2022-12-26T09:00:57.098Z,9.35
2022-12-26T09:03:29.846Z,9.29
2022-12-26T09:06:06.458Z,9.18
2022-12-26T09:08:40.941Z,9.09
2022-12-26T09:11:16.192Z,9.09
2022-12-26T09:13:49.399Z,9.17
2022-12-26T09:16:24.807Z,9.30
2022-12-26T09:19:01.740Z,9.42
2022-12-26T09:21:34.906Z,9.50
2022-12-26T09:24:09.782Z,9.47
2022-12-26T09:26:42.654Z,9.38
2022-12-26T09:29:16.372Z,9.28
2022-12-26T09:31:49.820Z,9.22
2022-12-26T09:34:22.510Z,9.16
2022-12-26T09:36:55.167Z,9.12
2022-12-26T09:39:27.985Z,9.09
2022-12-26T09:42:09.893Z,9.10
2022-12-26T09:44:53.722Z,9.12
2022-12-26T09:47:35.470Z,9.19
2022-12-26T09:50:16.311Z,9.23
2022-12-26T09:52:53.392Z,9.24
2022-12-26T09:55:38.019Z,9.26
2022-12-26T09:58:21.143Z,9.22
2022-12-26T10:00:58.561Z,9.17
2022-12-26T10:03:31.974Z,9.13
2022-12-26T10:06:14.738Z,9.09
2022-12-26T10:09:21.255Z,9.04
2022-12-26T10:12:19.142Z,8.99
2022-12-26T10:14:59.040Z,8.92
2022-12-26T10:17:41.759Z,8.84
2022-12-26T10:20:28.885Z,8.83
2022-12-26T10:23:37.158Z,8.82
2022-12-26T10:26:15.742Z,8.83
2022-12-26T10:28:52.293Z,8.83
2022-12-26T10:31:31.883Z,8.80
2022-12-26T10:34:12.356Z,8.81
2022-12-26T10:36:50.039Z,8.82
2022-12-26T10:39:27.859Z,8.86
2022-12-26T10:42:05.155Z,8.95
2022-12-26T10:44:37.669Z,9.02
2022-12-26T10:47:26.744Z,9.06
2022-12-26T10:50:00.235Z,9.08
2022-12-26T10:52:38.274Z,9.10
2022-12-26T10:55:29.719Z,9.06
2022-12-26T10:58:15.977Z,9.02
2022-12-26T11:00:48.886Z,8.99
2022-12-26T11:03:22.885Z,8.95
2022-12-26T11:06:13.403Z,8.92
2022-12-26T11:08:51.943Z,8.91
2022-12-26T11:11:27.335Z,8.95
2022-12-26T11:14:04.390Z,8.96
2022-12-26T11:16:41.562Z,8.96
2022-12-26T11:19:29.875Z,8.98
2022-12-26T11:22:26.974Z,8.98
2022-12-26T11:25:19.969Z,8.99
2022-12-26T11:27:55.159Z,8.99
2022-12-26T11:30:33.121Z,9.01
2022-12-26T11:33:24.393Z,9.03
2022-12-26T11:36:06.721Z,9.08
2022-12-26T11:38:50.842Z,9.13
2022-12-26T11:41:42.356Z,9.18
2022-12-26T11:44:23.897Z,9.20
2022-12-26T11:47:00.944Z,9.21
2022-12-26T11:49:37.445Z,9.14
2022-12-26T11:52:38.036Z,9.10
2022-12-26T11:55:34.756Z,9.09
2022-12-26T11:58:23.002Z,9.09
2022-12-26T12:01:14.425Z,9.12
2022-12-26T12:06:49.465Z,9.16
2022-12-26T12:09:30.329Z,9.17
2022-12-26T12:12:11.419Z,9.17
2022-12-26T12:14:56.629Z,9.17
2022-12-26T12:17:37.146Z,9.14
2022-12-26T12:20:30.258Z,9.09
2022-12-26T12:23:21.057Z,9.03
2022-12-26T12:26:10.775Z,9.00
2022-12-26T12:29:08.693Z,8.96
2022-12-26T12:31:44.940Z,8.96
2022-12-26T12:34:32.340Z,8.96
2022-12-26T12:37:19.548Z,8.96
2022-12-26T12:40:01.611Z,9.00
2022-12-26T12:42:46.688Z,9.05
2022-12-26T12:45:28.486Z,9.12
2022-12-26T12:48:24.690Z,9.17
2022-12-26T12:51:06.101Z,9.20
2022-12-26T12:53:58.725Z,9.20
2022-12-26T12:56:42.624Z,9.19
2022-12-26T12:59:27.316Z,9.19
2022-12-26T13:02:10.318Z,9.19
2022-12-26T13:04:49.434Z,9.20
2022-12-26T13:07:27.063Z,9.21
2022-12-26T13:10:02.125Z,9.22
2022-12-26T13:12:40.546Z,9.23
2022-12-26T13:15:35.967Z,9.21
2022-12-26T13:18:15.057Z,9.20
2022-12-26T13:20:50.255Z,9.18
2022-12-26T13:23:45.815Z,9.12
2022-12-26T13:26:23.945Z,9.04
2022-12-26T13:28:59.853Z,8.99
2022-12-26T13:31:37.323Z,8.98
2022-12-26T13:34:15.641Z,8.97
2022-12-26T13:36:49.728Z,8.99
2022-12-26T13:39:47.932Z,8.99
2022-12-26T13:42:49.588Z,8.92
2022-12-26T13:45:58.309Z,8.81
2022-12-26T13:49:08.251Z,8.67
2022-12-26T13:51:57.308Z,8.53
2022-12-26T13:54:31.775Z,8.42
2022-12-26T13:57:44.636Z,8.38
2022-12-26T14:00:20.828Z,8.36
2022-12-26T14:03:24.524Z,8.33
2022-12-26T14:06:18.133Z,8.27
2022-12-26T14:09:13.893Z,8.22
2022-12-26T14:12:11.092Z,8.16
2022-12-26T14:14:57.087Z,8.05
2022-12-26T14:17:48.243Z,7.91
2022-12-26T14:20:39.009Z,7.76
2022-12-26T14:23:30.185Z,7.63
2022-12-26T14:26:09.194Z,7.54
2022-12-26T14:28:59.206Z,7.47
2022-12-26T14:31:42.475Z,7.43
2022-12-26T14:34:28.847Z,7.39
2022-12-26T14:37:15.927Z,7.37
2022-12-26T14:40:10.409Z,7.35
2022-12-26T14:43:12.117Z,7.36
2022-12-26T14:45:49.013Z,7.36
2022-12-26T14:48:44.207Z,7.36
2022-12-26T14:51:42.365Z,7.31
2022-12-26T14:54:51.246Z,7.23
2022-12-26T14:57:56.595Z,7.12
2022-12-26T15:00:35.809Z,7.02
2022-12-26T15:03:40.767Z,6.96
2022-12-26T15:06:54.918Z,6.91
2022-12-26T15:09:55.669Z,6.89
2022-12-26T15:13:04.004Z,6.89
2022-12-26T15:15:46.335Z,6.91
2022-12-26T15:18:43.401Z,6.94
2022-12-26T15:21:45.933Z,6.99
2022-12-26T15:25:17.997Z,7.02
2022-12-26T15:28:24.380Z,7.04
2022-12-26T15:31:16.138Z,7.04
2022-12-26T15:33:55.403Z,7.03
2022-12-26T15:36:37.554Z,7.04
2022-12-26T15:39:23.016Z,7.06
2022-12-26T15:42:06.147Z,7.10
2022-12-26T15:44:52.094Z,7.14
2022-12-26T15:47:35.370Z,7.16
2022-12-26T15:50:20.453Z,7.13
2022-12-26T15:53:03.645Z,7.08
2022-12-26T15:55:52.494Z,7.04
2022-12-26T15:58:45.506Z,7.03
2022-12-26T16:01:38.710Z,7.04
2022-12-26T16:04:19.478Z,7.06
2022-12-26T16:07:11.015Z,7.09
2022-12-26T16:09:48.377Z,7.13
2022-12-26T16:12:27.341Z,7.17
2022-12-26T16:15:20.925Z,7.20
2022-12-26T16:17:53.839Z,7.22
2022-12-26T16:20:53.251Z,7.24
2022-12-26T16:23:31.743Z,7.26
2022-12-26T16:26:04.579Z,7.29
2022-12-26T16:28:41.707Z,7.32
2022-12-26T16:31:20.917Z,7.32
2022-12-26T16:33:58.620Z,7.30
2022-12-26T16:36:35.843Z,7.27
2022-12-26T16:39:14.316Z,7.24
2022-12-26T16:42:06.433Z,7.23
2022-12-26T16:44:44.547Z,7.24
2022-12-26T16:47:18.496Z,7.25
2022-12-26T16:49:52.132Z,7.26
2022-12-26T16:52:40.561Z,7.29
2022-12-26T16:55:37.984Z,7.32
2022-12-26T16:58:21.953Z,7.34
2022-12-26T17:01:13.528Z,7.35
2022-12-26T17:03:54.304Z,7.36
2022-12-26T17:06:31.631Z,7.36
2022-12-26T17:09:17.159Z,7.35
2022-12-26T17:11:55.070Z,7.34
2022-12-26T17:14:33.116Z,7.33
2022-12-26T17:17:08.471Z,7.34
2022-12-26T17:19:41.055Z,7.33
2022-12-26T17:22:33.217Z,7.33
2022-12-26T17:25:28.066Z,7.33
2022-12-26T17:28:29.991Z,7.29
2022-12-26T17:31:17.845Z,7.25
2022-12-26T17:33:50.795Z,7.21
2022-12-26T17:39:23.716Z,7.22
2022-12-26T17:41:59.297Z,7.23
2022-12-26T17:44:44.096Z,7.24
2022-12-26T17:47:23.437Z,7.27
2022-12-26T17:49:57.055Z,7.29
2022-12-26T17:52:32.056Z,7.29
2022-12-26T17:55:12.901Z,7.30
2022-12-26T17:57:45.745Z,7.31
2022-12-26T18:00:24.765Z,7.32
2022-12-26T18:02:57.433Z,7.32
2022-12-26T18:05:31.787Z,7.34
2022-12-26T18:08:04.965Z,7.36
2022-12-26T18:10:39.063Z,7.37
2022-12-26T18:13:18.628Z,7.36
2022-12-26T18:15:52.099Z,7.32
2022-12-26T18:18:32.715Z,7.28
2022-12-26T18:21:07.294Z,7.24
2022-12-26T18:23:40.388Z,7.22
2022-12-26T18:26:21.648Z,7.20
2022-12-26T18:28:55.541Z,7.20
2022-12-26T18:31:28.528Z,7.20
2022-12-26T18:34:01.240Z,7.19
2022-12-26T18:36:36.516Z,7.18
2022-12-26T18:39:09.071Z,7.21
2022-12-26T18:41:42.189Z,7.20
2022-12-26T18:44:15.799Z,7.20
2022-12-26T18:46:48.295Z,7.20
2022-12-26T18:49:20.765Z,7.19
2022-12-26T18:51:53.838Z,7.18
2022-12-26T18:54:26.361Z,7.15
2022-12-26T18:56:58.847Z,7.14
2022-12-26T18:59:31.338Z,7.13
2022-12-26T19:02:04.108Z,7.12
2022-12-26T19:04:37.921Z,7.09
2022-12-26T19:07:11.021Z,7.07
2022-12-26T19:09:47.396Z,7.08
2022-12-26T19:12:19.994Z,7.08
2022-12-26T19:14:52.686Z,7.09
2022-12-26T19:17:26.111Z,7.10
2022-12-26T19:19:59.262Z,7.09
2022-12-26T19:22:32.537Z,7.10
2022-12-26T19:25:06.161Z,7.08
2022-12-26T19:27:40.488Z,7.09
2022-12-26T19:30:14.576Z,7.09
2022-12-26T19:32:47.631Z,7.10
2022-12-26T19:35:21.383Z,7.09
2022-12-26T19:37:54.152Z,7.09
2022-12-26T19:40:28.021Z,7.08
2022-12-26T19:43:00.873Z,7.05
2022-12-26T19:45:33.930Z,7.04
2022-12-26T19:48:07.115Z,7.01
2022-12-26T19:50:39.746Z,6.98
2022-12-26T19:53:13.667Z,6.95
2022-12-26T19:55:46.186Z,6.95
2022-12-26T19:58:18.722Z,6.92
2022-12-26T20:00:51.610Z,6.93
2022-12-26T20:03:24.277Z,6.93
2022-12-26T20:05:56.765Z,6.93
2022-12-26T20:08:29.889Z,6.92
2022-12-26T20:11:08.239Z,6.92
2022-12-26T20:13:39.097Z,6.91
2022-12-26T20:16:45.730Z,6.93
2022-12-26T20:19:09.078Z,6.93
2022-12-26T20:21:41.636Z,6.93
2022-12-26T20:24:14.818Z,6.94
2022-12-26T20:26:47.427Z,6.95
2022-12-26T20:29:20.161Z,6.98
2022-12-26T20:31:55.410Z,7.00
2022-12-26T20:34:27.940Z,7.02
2022-12-26T20:37:00.957Z,7.04
2022-12-26T20:39:34.907Z,7.06
2022-12-26T20:42:07.563Z,7.07
2022-12-26T20:44:41.619Z,7.08
2022-12-26T20:47:14.260Z,7.09
2022-12-26T20:49:51.267Z,7.10
2022-12-26T20:52:23.749Z,7.12
2022-12-26T20:54:56.445Z,7.11
2022-12-26T20:57:29.163Z,7.11
2022-12-26T21:00:02.747Z,7.11
2022-12-26T21:02:35.262Z,7.09
2022-12-26T21:05:08.964Z,7.08
2022-12-26T21:07:41.549Z,7.06
2022-12-26T21:10:15.717Z,7.05
2022-12-26T21:12:48.208Z,7.03
2022-12-26T21:15:20.823Z,7.02
2022-12-26T21:17:53.620Z,7.00
2022-12-26T21:20:26.172Z,7.00
2022-12-26T21:22:59.073Z,7.01
2022-12-26T21:25:31.920Z,7.02
2022-12-26T21:28:05.402Z,7.03
2022-12-26T21:30:37.909Z,7.04
2022-12-26T21:33:11.683Z,7.05
2022-12-26T21:35:44.211Z,7.06
2022-12-26T21:38:16.781Z,7.09
2022-12-26T21:40:49.469Z,7.12
2022-12-26T21:43:30.345Z,7.14
2022-12-26T21:46:06.686Z,7.16
2022-12-26T21:48:39.510Z,7.18
2022-12-26T21:51:12.190Z,7.19
2022-12-26T21:53:46.367Z,7.22
2022-12-26T21:56:20.077Z,7.24
2022-12-26T21:59:21.255Z,7.27
2022-12-26T22:01:55.070Z,7.30
2022-12-26T22:04:29.413Z,7.30
2022-12-26T22:07:02.259Z,7.30
2022-12-26T22:09:34.909Z,7.32
2022-12-26T22:12:25.327Z,7.31
2022-12-26T22:14:57.849Z,7.31
2022-12-26T22:17:32.711Z,7.32
2022-12-26T22:20:05.505Z,7.33
2022-12-26T22:22:38.076Z,7.34
2022-12-26T22:25:11.441Z,7.35
2022-12-26T22:27:44.186Z,7.35
2022-12-26T22:30:17.175Z,7.34
2022-12-26T22:32:50.485Z,7.33
2022-12-26T22:35:23.115Z,7.31
2022-12-26T22:37:55.592Z,7.28
2022-12-26T22:40:29.853Z,7.26
2022-12-26T22:43:03.350Z,7.23
2022-12-26T22:45:36.233Z,7.21
2022-12-26T22:48:09.188Z,7.19
2022-12-26T22:50:45.430Z,7.18
2022-12-26T22:53:17.892Z,7.18
2022-12-26T22:55:53.116Z,7.18
2022-12-26T22:58:25.701Z,7.17
2022-12-26T23:00:59.031Z,7.16
2022-12-26T23:03:31.979Z,7.17
2022-12-26T23:06:16.961Z,7.17
2022-12-26T23:08:50.948Z,7.18
2022-12-26T23:11:28.771Z,7.19
2022-12-26T23:14:10.628Z,7.20
2022-12-26T23:16:51.691Z,7.21
2022-12-26T23:19:50.326Z,7.23
2022-12-26T23:22:23.612Z,7.23
2022-12-26T23:24:56.135Z,7.25
2022-12-26T23:28:00.783Z,7.28
2022-12-26T23:30:33.405Z,7.32
2022-12-26T23:33:06.032Z,7.36
2022-12-26T23:35:40.187Z,7.42
2022-12-26T23:38:12.679Z,7.47
2022-12-26T23:40:45.486Z,7.54
2022-12-26T23:43:18.362Z,7.59
2022-12-26T23:45:51.093Z,7.64
2022-12-26T23:48:24.716Z,7.67
2022-12-26T23:51:07.580Z,7.67
2022-12-26T23:53:40.198Z,7.65
2022-12-26T23:56:13.154Z,7.61
2022-12-26T23:58:46.117Z,7.60
